Messwerte Balzers

Temperatur

Temperatur
°C
1532235600 7.00 7.00 16.1
1532239200 8.00 8.00 16.3
1532242800 9.00 9.00 16.7
1532246400 10.00 10.00 18.4
1532250000 11.00 11.00 19.4
1532253600 12.00 12.00 20.4
1532257200 13.00 13.00 21.2
1532260800 14.00 14.00 20.8
1532264400 15.00 15.00 20.5
1532268000 16.00 16.00 21.1
1532271600 17.00 17.00 21.3
1532275200 18.00 18.00 21.1
1532278800 19.00 19.00 21.0
1532282400 20.00 20.00 21.0
1532286000 21.00 21.00 20.3
1532289600 22.00 22.00 19.7
1532293200 23.00 23.00 19.2
1532296800 0.00 0.00 18.4
1532300400 1.00 1.00
1532304000 2.00 2.00
1532307600 3.00 3.00
1532311200 4.00 4.00
1532314800 5.00 5.00
1532318400 6.00 6.00

Wir danken unserem Partner:

Aktuellste Messwerte

Temperatur
16.9 °C
Feuchtigkeit
90 %
Wind
3 km/hWindrichtung: Nord
Böen
6 km/h
Luftdruck
1016.0 hPa
Globalstrahlung
20 W/m²
Messzeit: 23. Juli 2018, 7.00Datenquelle: MeteoNews Partner, PWS Balzers

Webcams

Weitere Messstationen in der Nähe

Messstation Temperatur Entfernung
Bad Ragaz 17.0 °C 3 km
Vaduz 17.0 °C 8 km
Schiers 15.3 °C 17 km
Tannenboden/Flumserberge 12.4 °C 17 km
Maschgenkamm/Flumserberge 8.1 °C 19 km
Chur 16.7 °C 21 km
Säntis 5.8 °C 24 km

Niederschlag

Niederschlagsmenge
mm
1532235600 7.00 6.00 - 7.00
1532239200 8.00 7.00 - 8.00 0.2
1532242800 9.00 8.00 - 9.00
1532246400 10.00 9.00 - 10.00 0.0
1532250000 11.00 10.00 - 11.00 0.0
1532253600 12.00 11.00 - 12.00 0.0
1532257200 13.00 12.00 - 13.00
1532260800 14.00 13.00 - 14.00
1532264400 15.00 14.00 - 15.00 0.0
1532268000 16.00 15.00 - 16.00 0.0
1532271600 17.00 16.00 - 17.00 0.0
1532275200 18.00 17.00 - 18.00
1532278800 19.00 18.00 - 19.00 0.0
1532282400 20.00 19.00 - 20.00
1532286000 21.00 20.00 - 21.00 0.0
1532289600 22.00 21.00 - 22.00
1532293200 23.00 22.00 - 23.00 0.0
1532296800 0.00 23.00 - 0.00
1532300400 1.00 0.00 - 1.00
1532304000 2.00 1.00 - 2.00
1532307600 3.00 2.00 - 3.00
1532311200 4.00 3.00 - 4.00
1532314800 5.00 4.00 - 5.00
1532318400 6.00 5.00 - 6.00

Wind

Windrichtung Böen Mittelwind
° km/h km/h
1532235600 7.00 6.00 - 7.00 150° 6 1
1532239200 8.00 7.00 - 8.00 150° 4 0
1532242800 9.00 8.00 - 9.00 150° 2 0
1532246400 10.00 9.00 - 10.00 150° 4 2
1532250000 11.00 10.00 - 11.00 350° 8 4
1532253600 12.00 11.00 - 12.00 210° 10 2
1532257200 13.00 12.00 - 13.00 330° 12 5
1532260800 14.00 13.00 - 14.00 320° 15 8
1532264400 15.00 14.00 - 15.00 310° 19 6
1532268000 16.00 15.00 - 16.00 330° 15 5
1532271600 17.00 16.00 - 17.00 320° 17 6
1532275200 18.00 17.00 - 18.00 320° 15 7
1532278800 19.00 18.00 - 19.00 330° 14 6
1532282400 20.00 19.00 - 20.00 340° 10 6
1532286000 21.00 20.00 - 21.00 340° 6 3
1532289600 22.00 21.00 - 22.00 340° 4 1
1532293200 23.00 22.00 - 23.00 360° 17 6
1532296800 0.00 23.00 - 0.00 350° 15 3
1532300400 1.00 0.00 - 1.00
1532304000 2.00 1.00 - 2.00
1532307600 3.00 2.00 - 3.00
1532311200 4.00 3.00 - 4.00
1532314800 5.00 4.00 - 5.00
1532318400 6.00 5.00 - 6.00

Ihre Wetterstation

Fehlt Ihre Wetterstation auf unserem Portal?

Schreiben Sie an network@meteonews.ch

Klima

Wann ist es am wärmsten? Wann regnet es am wenigsten? Unsere Klimadaten geben Auskunft.